Atalandi — SVBA — position and weather

sailwx.info

Track history (hours):
 
Tides and Currents Weather Stations Pressure Air Temp Water Temp Dewpoint Dewpoint Depression Visibility Wind Speed Wind Dir Waves Ship Positions

Atalandi

Last reported at 2015-Aug-05 05:32 UTC. Time now 2015-Aug-05 06:26 UTC.
Position N 44°35' E 037°55'.

Length 248 m; draft 8.5 m.

Type: Ship (hazmat cat C). MMSI: 240269000.

Date/timePositionNaut miles runAvg speedWind from/ knotsBaromVisibWave heightAir tempDewpointWater temp
2015-Aug-05 05:32N 44°35' E 037°55'0 0.0
2015-Aug-05 04:32N 44°35' E 037°55'0 0.0
2015-Aug-05 03:32N 44°35' E 037°55'0 0.0
2015-Aug-05 02:26N 44°35' E 037°55'0 0.0
2015-Aug-05 01:32N 44°35' E 037°55'0 0.0
2015-Aug-05 00:32N 44°35' E 037°55'0 0.0
2015-Aug-04 23:32N 44°35' E 037°55'0 0.0
2015-Aug-04 22:32N 44°35' E 037°55'0 0.0
2015-Aug-04 21:32N 44°35' E 037°55'0 0.1
2015-Aug-04 20:32N 44°35' E 037°55'0 0.0
2015-Aug-04 19:32N 44°35' E 037°55'0 0.0
2015-Aug-04 18:32N 44°35' E 037°55'0 0.1
2015-Aug-04 17:29N 44°35' E 037°55'0 0.0
2015-Aug-04 16:32N 44°35' E 037°55'0 0.0
2015-Aug-04 15:32N 44°35' E 037°55'0 0.0
2015-Aug-04 14:32N 44°35' E 037°55'0 0.0
2015-Aug-04 13:32N 44°35' E 037°55'0 0.0
2015-Aug-04 12:32N 44°35' E 037°55'0 0.0
2015-Aug-04 11:32N 44°35' E 037°55'0 0.0
2015-Aug-04 10:32N 44°35' E 037°55'0 0.0
2015-Aug-04 09:32N 44°35' E 037°55'0 0.0
2015-Aug-04 08:32N 44°35' E 037°55'0 0.0
2015-Aug-04 07:32N 44°35' E 037°55'0 0.1
2015-Aug-04 06:32N 44°35' E 037°55'0 0.2
2015-Aug-04 05:29N 44°35' E 037°55'0 0.0
2015-Aug-04 04:32N 44°35' E 037°55'0 0.0
2015-Aug-04 03:32N 44°35' E 037°55'0 0.0
2015-Aug-04 02:32N 44°35' E 037°55'0 0.0
2015-Aug-04 01:32N 44°35' E 037°55'0 0.0
2015-Aug-04 00:32N 44°35' E 037°55'0 0.0
2015-Aug-03 23:32N 44°35' E 037°55'0 0.1
2015-Aug-03 22:32N 44°35' E 037°55'0 0.0
2015-Aug-03 21:32N 44°35' E 037°55'0 0.1
2015-Aug-03 20:32N 44°35' E 037°55'0 0.0
2015-Aug-03 19:32N 44°35' E 037°55'0 0.2
2015-Aug-03 18:32N 44°35' E 037°55'0 0.0
2015-Aug-03 17:32N 44°35' E 037°55'0 0.0
2015-Aug-03 16:32N 44°35' E 037°55'0 0.1
2015-Aug-03 15:32N 44°35' E 037°55'0 0.1
2015-Aug-03 14:32N 44°35' E 037°55'0 0.2
2015-Aug-03 13:32N 44°35' E 037°55'0 0.2
2015-Aug-03 12:33N 44°35' E 037°55'6 5.9
2015-Aug-03 11:33N 44°33' E 037°47'9 8.8
2015-Aug-03 10:33N 44°34' E 037°34'0 0.3
2015-Aug-03 09:33N 44°34' E 037°34'3 2.9
2015-Aug-03 08:34N 44°32' E 037°31'0 0.3
2015-Aug-03 07:33N 44°32' E 037°31'0 0.3
2015-Aug-03 06:33N 44°32' E 037°31'0 0.3
2015-Aug-03 05:33N 44°32' E 037°32'0 0.3
2015-Aug-03 04:33N 44°32' E 037°32'0 0.3
2015-Aug-03 03:33N 44°33' E 037°32'0 0.4
2015-Aug-03 02:33N 44°33' E 037°33'1 0.5
2015-Aug-03 01:33N 44°34' E 037°33'1 0.6
2015-Aug-03 00:33N 44°34' E 037°33'1 0.6
2015-Aug-02 23:33N 44°34' E 037°34'1 0.7
2015-Aug-02 22:33N 44°35' E 037°35'25 1.6
2015-Aug-02 06:18N 44°17' E 037°10'910.8
2015-Aug-02 05:28N 44°13' E 036°58'63 6.3
2015-Aug-01 19:27N 43°43' E 035°42'1410.3
2015-Aug-01 18:03N 43°37' E 035°24'510.1
2015-Aug-01 17:33N 43°35' E 035°17'1110.1
2015-Aug-01 16:27N 43°30' E 035°04'910.1
2015-Aug-01 15:33N 43°25' E 034°53'  
2015-Jul-28 12:33N 38°47' E 025°11'1111.5
2015-Jul-28 11:33N 38°37' E 025°04'1511.2
2015-Jul-28 10:14N 38°23' E 024°56'811.2
2015-Jul-28 09:33N 38°17' E 024°51'3712.1
2015-Jul-28 06:30N 37°43' E 024°32'1713.6
2015-Jul-28 05:15N 37°28' E 024°21'1911.1
2015-Jul-28 03:32N 37°11' E 024°12'1111.6
2015-Jul-28 02:33N 37°00' E 024°07'1212.0
2015-Jul-28 01:33N 36°49' E 024°02'1111.1
2015-Jul-28 00:33N 36°39' E 023°56'1111.4
2015-Jul-27 23:33N 36°34' E 023°43'1111.4
2015-Jul-27 22:33N 36°28' E 023°31'1211.6
2015-Jul-27 21:33N 36°23' E 023°18'32410.7
2015-Jul-26 15:11N 40°27' E 018°46'812.0
2015-Jul-26 14:28N 40°34' E 018°41'1211.7
2015-Jul-26 13:28N 40°45' E 018°34'  
Track history (hours):
 
Tides and Currents Weather Stations Pressure Air Temp Water Temp Dewpoint Dewpoint Depression Visibility Wind Speed Wind Dir Waves Ship Positions

Atalandi

Last reported at 2015-Aug-05 05:32 UTC. Time now 2015-Aug-05 06:26 UTC.
Position N 44°35' E 037°55'.

Length 248 m; draft 8.5 m.

Type: Ship (hazmat cat C). MMSI: 240269000.

Date/timePositionNaut miles runAvg speedWind from/ knotsBaromVisibWave heightAir tempDewpointWater temp
2015-Aug-05 05:32N 44°35' E 037°55'0 0.0
2015-Aug-05 04:32N 44°35' E 037°55'0 0.0
2015-Aug-05 03:32N 44°35' E 037°55'0 0.0
2015-Aug-05 02:26N 44°35' E 037°55'0 0.0
2015-Aug-05 01:32N 44°35' E 037°55'0 0.0
2015-Aug-05 00:32N 44°35' E 037°55'0 0.0
2015-Aug-04 23:32N 44°35' E 037°55'0 0.0
2015-Aug-04 22:32N 44°35' E 037°55'0 0.0
2015-Aug-04 21:32N 44°35' E 037°55'0 0.1
2015-Aug-04 20:32N 44°35' E 037°55'0 0.0
2015-Aug-04 19:32N 44°35' E 037°55'0 0.0
2015-Aug-04 18:32N 44°35' E 037°55'0 0.1
2015-Aug-04 17:29N 44°35' E 037°55'0 0.0
2015-Aug-04 16:32N 44°35' E 037°55'0 0.0
2015-Aug-04 15:32N 44°35' E 037°55'0 0.0
2015-Aug-04 14:32N 44°35' E 037°55'0 0.0
2015-Aug-04 13:32N 44°35' E 037°55'0 0.0
2015-Aug-04 12:32N 44°35' E 037°55'0 0.0
2015-Aug-04 11:32N 44°35' E 037°55'0 0.0
2015-Aug-04 10:32N 44°35' E 037°55'0 0.0
2015-Aug-04 09:32N 44°35' E 037°55'0 0.0
2015-Aug-04 08:32N 44°35' E 037°55'0 0.0
2015-Aug-04 07:32N 44°35' E 037°55'0 0.1
2015-Aug-04 06:32N 44°35' E 037°55'0 0.2
2015-Aug-04 05:29N 44°35' E 037°55'0 0.0
2015-Aug-04 04:32N 44°35' E 037°55'0 0.0
2015-Aug-04 03:32N 44°35' E 037°55'0 0.0
2015-Aug-04 02:32N 44°35' E 037°55'0 0.0
2015-Aug-04 01:32N 44°35' E 037°55'0 0.0
2015-Aug-04 00:32N 44°35' E 037°55'0 0.0
2015-Aug-03 23:32N 44°35' E 037°55'0 0.1
2015-Aug-03 22:32N 44°35' E 037°55'0 0.0
2015-Aug-03 21:32N 44°35' E 037°55'0 0.1
2015-Aug-03 20:32N 44°35' E 037°55'0 0.0
2015-Aug-03 19:32N 44°35' E 037°55'0 0.2
2015-Aug-03 18:32N 44°35' E 037°55'0 0.0
2015-Aug-03 17:32N 44°35' E 037°55'0 0.0
2015-Aug-03 16:32N 44°35' E 037°55'0 0.1
2015-Aug-03 15:32N 44°35' E 037°55'0 0.1
2015-Aug-03 14:32N 44°35' E 037°55'0 0.2
2015-Aug-03 13:32N 44°35' E 037°55'0 0.2
2015-Aug-03 12:33N 44°35' E 037°55'6 5.9
2015-Aug-03 11:33N 44°33' E 037°47'9 8.8
2015-Aug-03 10:33N 44°34' E 037°34'0 0.3
2015-Aug-03 09:33N 44°34' E 037°34'3 2.9
2015-Aug-03 08:34N 44°32' E 037°31'0 0.3
2015-Aug-03 07:33N 44°32' E 037°31'0 0.3
2015-Aug-03 06:33N 44°32' E 037°31'0 0.3
2015-Aug-03 05:33N 44°32' E 037°32'0 0.3
2015-Aug-03 04:33N 44°32' E 037°32'0 0.3
2015-Aug-03 03:33N 44°33' E 037°32'0 0.4
2015-Aug-03 02:33N 44°33' E 037°33'1 0.5
2015-Aug-03 01:33N 44°34' E 037°33'1 0.6
2015-Aug-03 00:33N 44°34' E 037°33'1 0.6
2015-Aug-02 23:33N 44°34' E 037°34'1 0.7
2015-Aug-02 22:33N 44°35' E 037°35'25 1.6
2015-Aug-02 06:18N 44°17' E 037°10'910.8
2015-Aug-02 05:28N 44°13' E 036°58'63 6.3
2015-Aug-01 19:27N 43°43' E 035°42'1410.3
2015-Aug-01 18:03N 43°37' E 035°24'510.1
2015-Aug-01 17:33N 43°35' E 035°17'1110.1
2015-Aug-01 16:27N 43°30' E 035°04'910.1
2015-Aug-01 15:33N 43°25' E 034°53'  
2015-Jul-28 12:33N 38°47' E 025°11'1111.5
2015-Jul-28 11:33N 38°37' E 025°04'1511.2
2015-Jul-28 10:14N 38°23' E 024°56'811.2
2015-Jul-28 09:33N 38°17' E 024°51'3712.1
2015-Jul-28 06:30N 37°43' E 024°32'1713.6
2015-Jul-28 05:15N 37°28' E 024°21'1911.1
2015-Jul-28 03:32N 37°11' E 024°12'1111.6
2015-Jul-28 02:33N 37°00' E 024°07'1212.0
2015-Jul-28 01:33N 36°49' E 024°02'1111.1
2015-Jul-28 00:33N 36°39' E 023°56'1111.4
2015-Jul-27 23:33N 36°34' E 023°43'1111.4
2015-Jul-27 22:33N 36°28' E 023°31'1211.6
2015-Jul-27 21:33N 36°23' E 023°18'32410.7
2015-Jul-26 15:11N 40°27' E 018°46'812.0
2015-Jul-26 14:28N 40°34' E 018°41'1211.7
2015-Jul-26 13:28N 40°45' E 018°34'  

Dump ship's entire track history